createdAt,value
2022-11-16T06:19:10.085Z,14.73
2022-11-16T06:21:38.245Z,14.82
2022-11-16T06:24:09.825Z,14.73
2022-11-16T06:26:37.528Z,14.73
2022-11-16T06:29:05.710Z,14.89
2022-11-16T06:31:35.017Z,15.21
2022-11-16T06:34:03.996Z,14.89
2022-11-16T06:36:31.654Z,15.15
2022-11-16T06:39:01.331Z,15.25
2022-11-16T06:41:32.254Z,14.72
2022-11-16T06:44:00.079Z,15.01
2022-11-16T06:46:33.251Z,14.63
2022-11-16T06:49:00.902Z,14.51
2022-11-16T06:51:28.830Z,15.05
2022-11-16T06:53:56.560Z,15.49
2022-11-16T06:56:25.049Z,15.64
2022-11-16T06:58:58.042Z,15.83
2022-11-16T07:01:28.289Z,15.95
2022-11-16T07:04:12.146Z,16.12
2022-11-16T07:06:43.752Z,16.42
2022-11-16T07:09:14.271Z,16.54
2022-11-16T07:11:42.124Z,16.47
2022-11-16T07:14:10.156Z,16.33
2022-11-16T07:16:38.400Z,16.16
2022-11-16T07:19:06.300Z,15.57
2022-11-16T07:21:37.565Z,15.42
2022-11-16T07:24:09.191Z,15.37
2022-11-16T07:26:36.976Z,15.31
2022-11-16T07:29:10.015Z,15.27
2022-11-16T07:31:42.335Z,15.25
2022-11-16T07:34:42.377Z,15.20
2022-11-16T07:37:14.444Z,15.15
2022-11-16T07:39:42.091Z,15.11
2022-11-16T07:42:11.961Z,15.12
2022-11-16T07:45:17.976Z,15.08
2022-11-16T07:47:53.605Z,15.08
2022-11-16T07:50:47.942Z,15.09
2022-11-16T07:53:17.130Z,15.13
2022-11-16T07:55:51.914Z,15.13
2022-11-16T07:58:20.729Z,15.09
2022-11-16T08:00:48.724Z,15.11
2022-11-16T08:03:21.782Z,15.14
2022-11-16T08:05:59.511Z,15.17
2022-11-16T08:08:27.590Z,15.07
2022-11-16T08:11:02.151Z,14.89
2022-11-16T08:13:32.131Z,14.85
2022-11-16T08:16:11.622Z,14.85
2022-11-16T08:18:39.642Z,14.82
2022-11-16T08:21:08.891Z,14.88
2022-11-16T08:23:36.777Z,14.79
2022-11-16T08:26:05.945Z,14.77
2022-11-16T08:28:34.236Z,14.75
2022-11-16T08:31:09.618Z,14.68
2022-11-16T08:33:38.618Z,14.67
2022-11-16T08:36:13.579Z,14.73
2022-11-16T08:38:42.108Z,14.69
2022-11-16T08:41:10.042Z,14.73
2022-11-16T08:43:39.683Z,14.72
2022-11-16T08:46:09.262Z,14.67
2022-11-16T08:48:38.869Z,14.62
2022-11-16T08:51:18.932Z,14.58
2022-11-16T08:53:57.082Z,14.60
2022-11-16T08:56:27.470Z,14.59
2022-11-16T08:58:58.588Z,14.53
2022-11-16T09:01:28.367Z,14.54
2022-11-16T09:03:56.542Z,14.60
2022-11-16T09:06:24.820Z,14.63
2022-11-16T09:08:52.838Z,14.62
2022-11-16T09:11:22.094Z,14.62
2022-11-16T09:13:50.827Z,14.51
2022-11-16T09:16:20.973Z,14.42
2022-11-16T09:18:49.776Z,14.36
2022-11-16T09:21:25.280Z,14.27
2022-11-16T09:23:53.455Z,14.25
2022-11-16T09:26:23.305Z,14.21
2022-11-16T09:28:58.474Z,14.18
2022-11-16T09:31:29.348Z,14.18
2022-11-16T09:33:58.932Z,14.29
2022-11-16T09:36:27.835Z,14.35
2022-11-16T09:42:02.406Z,14.58
2022-11-16T09:45:01.401Z,14.70
2022-11-16T09:47:52.176Z,14.77
2022-11-16T09:50:34.732Z,14.78
2022-11-16T09:53:18.383Z,14.77
2022-11-16T09:55:54.212Z,14.85
2022-11-16T09:58:50.307Z,15.03
2022-11-16T10:01:34.229Z,15.20
2022-11-16T10:04:18.939Z,15.36
2022-11-16T10:07:02.043Z,15.49
2022-11-16T10:09:30.239Z,15.54
2022-11-16T10:12:19.216Z,15.56
2022-11-16T10:15:07.310Z,15.67
2022-11-16T10:18:08.563Z,15.74
2022-11-16T10:21:03.651Z,15.80
2022-11-16T10:24:03.950Z,15.77
2022-11-16T10:26:53.869Z,15.76
2022-11-16T10:29:31.493Z,15.83
2022-11-16T10:32:13.081Z,15.84
2022-11-16T10:34:56.588Z,16.07
2022-11-16T10:37:33.458Z,16.21
2022-11-16T10:40:01.212Z,16.46
2022-11-16T10:42:36.697Z,16.43
2022-11-16T10:45:07.217Z,16.11
2022-11-16T10:47:47.279Z,16.32
2022-11-16T10:50:44.015Z,16.13
2022-11-16T10:53:15.571Z,16.26
2022-11-16T10:55:43.746Z,16.35
2022-11-16T10:58:11.857Z,16.51
2022-11-16T11:00:47.592Z,16.69
2022-11-16T11:03:15.501Z,16.69
2022-11-16T11:05:48.880Z,16.62
2022-11-16T11:08:30.731Z,16.74
2022-11-16T11:11:24.520Z,16.69
2022-11-16T11:14:08.354Z,16.78
2022-11-16T11:16:36.224Z,16.83
2022-11-16T11:19:39.860Z,17.07
2022-11-16T11:22:10.604Z,17.12
2022-11-16T11:24:44.596Z,17.17
2022-11-16T11:27:13.611Z,17.12
2022-11-16T11:29:41.942Z,17.17
2022-11-16T11:32:22.422Z,17.25
2022-11-16T11:34:53.564Z,17.30
2022-11-16T11:37:25.808Z,17.35
2022-11-16T11:40:20.122Z,17.18
2022-11-16T11:43:00.586Z,17.39
2022-11-16T11:45:33.647Z,17.29
2022-11-16T11:48:03.359Z,17.35
2022-11-16T11:50:51.272Z,17.25
2022-11-16T11:53:39.837Z,17.10
2022-11-16T11:56:07.881Z,17.18
2022-11-16T11:58:37.545Z,17.20
2022-11-16T12:01:08.457Z,17.09
2022-11-16T12:03:54.953Z,16.94
2022-11-16T12:06:30.163Z,16.87
2022-11-16T12:09:09.883Z,16.70
2022-11-16T12:11:48.902Z,16.50
2022-11-16T12:14:46.889Z,16.25
2022-11-16T12:17:44.524Z,15.94
2022-11-16T12:20:43.255Z,15.73
2022-11-16T12:23:52.461Z,15.60
2022-11-16T12:26:41.441Z,15.44
2022-11-16T12:29:19.294Z,15.31
2022-11-16T12:32:09.357Z,15.23
2022-11-16T12:35:11.402Z,15.12
2022-11-16T12:38:04.136Z,15.07
2022-11-16T12:40:43.060Z,15.02
2022-11-16T12:43:14.443Z,14.97
2022-11-16T12:45:50.882Z,14.94
2022-11-16T12:48:41.006Z,14.90
2022-11-16T12:51:16.149Z,14.86
2022-11-16T12:54:11.877Z,14.86
2022-11-16T12:56:48.834Z,14.79
2022-11-16T12:59:46.840Z,14.79
2022-11-16T13:02:36.087Z,14.69
2022-11-16T13:05:12.381Z,14.64
2022-11-16T13:07:50.689Z,14.63
2022-11-16T13:10:24.569Z,14.61
2022-11-16T13:13:09.020Z,14.52
2022-11-16T13:15:41.712Z,14.48
2022-11-16T13:18:13.587Z,14.42
2022-11-16T13:20:53.652Z,14.42
2022-11-16T13:23:50.144Z,14.38
2022-11-16T13:26:26.161Z,14.38
2022-11-16T13:28:57.058Z,14.41
2022-11-16T13:31:29.689Z,14.40
2022-11-16T13:34:07.077Z,14.42
2022-11-16T13:36:40.627Z,14.36
2022-11-16T13:39:08.579Z,14.38
2022-11-16T13:41:39.370Z,14.33
2022-11-16T13:44:28.114Z,14.27
2022-11-16T13:47:03.786Z,14.25
2022-11-16T13:49:38.214Z,14.22
2022-11-16T13:52:23.359Z,14.18
2022-11-16T13:54:54.156Z,14.18
2022-11-16T13:57:30.058Z,14.23
2022-11-16T14:00:00.740Z,14.25
2022-11-16T14:02:28.248Z,14.23
2022-11-16T14:04:56.815Z,14.27
2022-11-16T14:07:32.908Z,14.26
2022-11-16T14:10:01.285Z,14.28
2022-11-16T14:12:38.352Z,14.32
2022-11-16T14:15:15.122Z,14.35
2022-11-16T14:18:11.818Z,14.38
2022-11-16T14:20:51.911Z,14.41
2022-11-16T14:23:53.677Z,14.48
2022-11-16T14:26:27.376Z,14.55
2022-11-16T14:29:14.263Z,14.57
2022-11-16T14:31:56.851Z,14.60
2022-11-16T14:34:51.503Z,14.60
2022-11-16T14:37:22.356Z,14.59
2022-11-16T14:39:50.669Z,14.57
2022-11-16T14:42:26.295Z,14.61
2022-11-16T14:45:01.575Z,14.67
2022-11-16T14:47:30.907Z,14.66
2022-11-16T14:49:58.660Z,14.64
2022-11-16T14:52:38.137Z,14.65
2022-11-16T14:55:08.219Z,14.66
2022-11-16T14:57:35.965Z,14.64
2022-11-16T15:00:21.992Z,14.60
2022-11-16T15:02:54.373Z,14.52
2022-11-16T15:05:28.610Z,14.40
2022-11-16T15:07:57.830Z,14.34
2022-11-16T15:10:26.625Z,14.33
2022-11-16T15:12:55.175Z,14.23
2022-11-16T15:15:24.462Z,14.26
2022-11-16T15:17:59.433Z,14.24
